Portada
METAR-TAF:

METAR-TAF

Aeropuertos :

Strother Field

Winfield / Arkansas City, Kansas, Estados Unidos

latitud: 37-10-05N, longitud: 097-02-13W, altitud: 353 m

Observación

El informe se hizo hace 15 minutos, a las 00:54 UTC
Viento 7 kt del este-noreste
Temperatura 20°C
Humedad 78%
Presión 1018 hPa
Visibilidad: 16.1 km
Escasas nubes a una altura de 4800 ft
Cielo nuboso a una altura de 7500 ft
Cielo cubierto a una altura de 8500 ft
tormenta en las proximidades, lluvia ligera

METAR: KWLD 290054Z AUTO 06007KT 10SM VCTS -RA FEW048 BKN075 OVC085 20/16 A3006 RMK AO2 PK WND 05033/0032 RAB43 SLP172 P0001 T02000156

Hora: 20:09 (01:09 UTC)


TAF: falta

Observaciones y pronósticos meteorológicos de más de 4000 aeropuertos (mensajes METAR y TAF).

Los puntos amarillos y rojos representan las estaciones disponibles.

Ponga el ratón en el punto deseado para ver el nombre de la estación.

Haga clic para ver las observaciones y los pronósticos meteorológicos.

Para cambiar el mapa : haga clic en los botones verdes con una cruz de color negro para hacer un zoom, en el botón verde con un guión para alejar o en las flechas verdes para mapas adyacentes.


METAR-TAF: